sensor_id;sensor_type;location;lat;lon;timestamp;P1;durP1;ratioP1;P2;durP2;ratioP2
82797;SDS011;72540;62.834;27.606;2023-09-19T00:00:42;1.58;;;0.50;;
82797;SDS011;72540;62.834;27.606;2023-09-19T00:03:09;1.77;;;0.52;;
82797;SDS011;72540;62.834;27.606;2023-09-19T00:05:37;2.55;;;0.90;;
82797;SDS011;72540;62.834;27.606;2023-09-19T00:08:09;1.20;;;0.65;;
82797;SDS011;72540;62.834;27.606;2023-09-19T00:10:35;1.25;;;0.60;;
82797;SDS011;72540;62.834;27.606;2023-09-19T00:13:02;4.32;;;0.90;;
82797;SDS011;72540;62.834;27.606;2023-09-19T00:15:39;1.98;;;0.70;;
82797;SDS011;72540;62.834;27.606;2023-09-19T00:18:06;2.00;;;0.75;;
82797;SDS011;72540;62.834;27.606;2023-09-19T00:20:37;2.10;;;0.70;;
82797;SDS011;72540;62.834;27.606;2023-09-19T00:23:04;1.05;;;0.50;;
82797;SDS011;72540;62.834;27.606;2023-09-19T00:25:37;1.13;;;0.60;;
82797;SDS011;72540;62.834;27.606;2023-09-19T00:28:06;0.93;;;0.55;;
82797;SDS011;72540;62.834;27.606;2023-09-19T00:30:33;1.05;;;0.55;;
82797;SDS011;72540;62.834;27.606;2023-09-19T00:32:59;2.45;;;0.90;;
82797;SDS011;72540;62.834;27.606;2023-09-19T00:35:26;3.05;;;0.70;;
82797;SDS011;72540;62.834;27.606;2023-09-19T00:37:52;3.30;;;0.73;;
82797;SDS011;72540;62.834;27.606;2023-09-19T00:40:19;2.08;;;0.75;;
82797;SDS011;72540;62.834;27.606;2023-09-19T00:42:47;2.35;;;0.73;;
82797;SDS011;72540;62.834;27.606;2023-09-19T00:45:14;2.33;;;0.80;;
82797;SDS011;72540;62.834;27.606;2023-09-19T00:47:44;1.70;;;0.60;;
82797;SDS011;72540;62.834;27.606;2023-09-19T00:50:14;2.35;;;0.70;;
82797;SDS011;72540;62.834;27.606;2023-09-19T00:52:44;1.92;;;0.52;;
82797;SDS011;72540;62.834;27.606;2023-09-19T00:55:11;2.13;;;0.80;;
82797;SDS011;72540;62.834;27.606;2023-09-19T00:57:41;1.20;;;0.50;;
82797;SDS011;72540;62.834;27.606;2023-09-19T01:00:07;1.92;;;0.70;;
82797;SDS011;72540;62.834;27.606;2023-09-19T01:02:37;1.48;;;0.63;;
82797;SDS011;72540;62.834;27.606;2023-09-19T01:05:03;1.60;;;0.60;;
82797;SDS011;72540;62.834;27.606;2023-09-19T01:07:31;1.83;;;0.70;;
82797;SDS011;72540;62.834;27.606;2023-09-19T01:10:02;3.80;;;0.90;;
82797;SDS011;72540;62.834;27.606;2023-09-19T01:12:54;3.25;;;0.90;;
82797;SDS011;72540;62.834;27.606;2023-09-19T01:18:16;5.82;;;1.30;;
82797;SDS011;72540;62.834;27.606;2023-09-19T01:23:48;7.18;;;1.27;;
82797;SDS011;72540;62.834;27.606;2023-09-19T01:29:37;1.85;;;0.63;;
82797;SDS011;72540;62.834;27.606;2023-09-19T01:32:05;3.45;;;0.90;;
82797;SDS011;72540;62.834;27.606;2023-09-19T01:34:47;2.83;;;0.90;;
82797;SDS011;72540;62.834;27.606;2023-09-19T01:37:18;3.42;;;1.10;;
82797;SDS011;72540;62.834;27.606;2023-09-19T01:45:26;5.68;;;1.42;;
82797;SDS011;72540;62.834;27.606;2023-09-19T01:48:21;7.40;;;1.55;;
82797;SDS011;72540;62.834;27.606;2023-09-19T01:53:33;6.82;;;1.45;;
82797;SDS011;72540;62.834;27.606;2023-09-19T01:56:07;2.05;;;0.80;;
82797;SDS011;72540;62.834;27.606;2023-09-19T01:58:39;3.50;;;1.02;;
82797;SDS011;72540;62.834;27.606;2023-09-19T02:01:11;6.70;;;1.23;;
82797;SDS011;72540;62.834;27.606;2023-09-19T02:03:39;6.22;;;1.23;;
82797;SDS011;72540;62.834;27.606;2023-09-19T02:06:05;6.55;;;1.30;;
82797;SDS011;72540;62.834;27.606;2023-09-19T02:08:36;3.15;;;1.00;;
82797;SDS011;72540;62.834;27.606;2023-09-19T02:11:02;4.80;;;1.10;;
82797;SDS011;72540;62.834;27.606;2023-09-19T02:13:28;3.03;;;0.90;;
82797;SDS011;72540;62.834;27.606;2023-09-19T02:15:54;3.30;;;0.70;;
82797;SDS011;72540;62.834;27.606;2023-09-19T02:18:21;3.33;;;0.80;;
82797;SDS011;72540;62.834;27.606;2023-09-19T02:20:46;4.15;;;1.10;;
82797;SDS011;72540;62.834;27.606;2023-09-19T02:23:12;6.18;;;1.02;;
82797;SDS011;72540;62.834;27.606;2023-09-19T02:25:38;4.85;;;1.33;;
82797;SDS011;72540;62.834;27.606;2023-09-19T02:28:05;3.63;;;0.98;;
82797;SDS011;72540;62.834;27.606;2023-09-19T02:30:31;3.88;;;1.02;;
82797;SDS011;72540;62.834;27.606;2023-09-19T02:32:58;5.93;;;1.00;;
82797;SDS011;72540;62.834;27.606;2023-09-19T02:35:27;3.60;;;1.15;;
82797;SDS011;72540;62.834;27.606;2023-09-19T02:37:53;7.05;;;1.30;;
82797;SDS011;72540;62.834;27.606;2023-09-19T02:40:19;5.60;;;1.42;;
82797;SDS011;72540;62.834;27.606;2023-09-19T02:42:48;3.97;;;1.38;;
82797;SDS011;72540;62.834;27.606;2023-09-19T02:45:17;5.18;;;1.15;;
82797;SDS011;72540;62.834;27.606;2023-09-19T02:47:44;3.33;;;1.23;;
82797;SDS011;72540;62.834;27.606;2023-09-19T02:50:10;3.25;;;1.08;;
82797;SDS011;72540;62.834;27.606;2023-09-19T02:52:36;3.60;;;1.02;;
82797;SDS011;72540;62.834;27.606;2023-09-19T02:55:03;3.53;;;1.20;;
82797;SDS011;72540;62.834;27.606;2023-09-19T02:57:31;2.15;;;0.95;;
82797;SDS011;72540;62.834;27.606;2023-09-19T02:59:58;6.03;;;1.20;;
82797;SDS011;72540;62.834;27.606;2023-09-19T03:02:25;2.97;;;1.10;;
82797;SDS011;72540;62.834;27.606;2023-09-19T03:04:52;3.53;;;1.02;;
82797;SDS011;72540;62.834;27.606;2023-09-19T03:07:18;4.28;;;1.23;;
82797;SDS011;72540;62.834;27.606;2023-09-19T03:09:43;3.58;;;1.13;;
82797;SDS011;72540;62.834;27.606;2023-09-19T03:12:10;4.85;;;1.20;;
82797;SDS011;72540;62.834;27.606;2023-09-19T03:14:36;2.58;;;1.00;;
82797;SDS011;72540;62.834;27.606;2023-09-19T03:17:02;3.55;;;1.10;;
82797;SDS011;72540;62.834;27.606;2023-09-19T03:19:30;3.63;;;0.95;;
82797;SDS011;72540;62.834;27.606;2023-09-19T03:21:58;2.33;;;1.05;;
82797;SDS011;72540;62.834;27.606;2023-09-19T03:24:24;4.40;;;1.20;;
82797;SDS011;72540;62.834;27.606;2023-09-19T03:26:51;3.10;;;1.08;;
82797;SDS011;72540;62.834;27.606;2023-09-19T03:29:17;3.00;;;1.20;;
82797;SDS011;72540;62.834;27.606;2023-09-19T03:31:43;2.35;;;0.90;;
82797;SDS011;72540;62.834;27.606;2023-09-19T03:34:09;2.47;;;1.13;;
82797;SDS011;72540;62.834;27.606;2023-09-19T03:36:35;2.75;;;1.02;;
82797;SDS011;72540;62.834;27.606;2023-09-19T03:39:01;2.95;;;1.02;;
82797;SDS011;72540;62.834;27.606;2023-09-19T03:41:30;4.20;;;1.20;;
82797;SDS011;72540;62.834;27.606;2023-09-19T03:43:56;4.25;;;1.48;;
82797;SDS011;72540;62.834;27.606;2023-09-19T03:46:22;3.53;;;1.30;;
82797;SDS011;72540;62.834;27.606;2023-09-19T03:48:48;3.55;;;1.25;;
82797;SDS011;72540;62.834;27.606;2023-09-19T03:51:13;3.17;;;1.25;;
82797;SDS011;72540;62.834;27.606;2023-09-19T03:53:39;4.80;;;1.50;;
82797;SDS011;72540;62.834;27.606;2023-09-19T03:56:04;6.47;;;1.30;;
82797;SDS011;72540;62.834;27.606;2023-09-19T03:58:30;4.15;;;1.35;;
82797;SDS011;72540;62.834;27.606;2023-09-19T04:00:56;3.15;;;1.30;;
82797;SDS011;72540;62.834;27.606;2023-09-19T04:03:23;6.50;;;1.30;;
82797;SDS011;72540;62.834;27.606;2023-09-19T04:05:50;3.30;;;1.30;;
82797;SDS011;72540;62.834;27.606;2023-09-19T04:08:16;5.10;;;1.67;;
82797;SDS011;72540;62.834;27.606;2023-09-19T04:10:42;9.27;;;1.77;;
82797;SDS011;72540;62.834;27.606;2023-09-19T04:13:11;3.35;;;1.27;;
82797;SDS011;72540;62.834;27.606;2023-09-19T04:15:37;5.10;;;1.70;;
82797;SDS011;72540;62.834;27.606;2023-09-19T04:18:03;5.32;;;1.73;;
82797;SDS011;72540;62.834;27.606;2023-09-19T04:20:28;4.63;;;1.50;;
82797;SDS011;72540;62.834;27.606;2023-09-19T04:22:54;5.18;;;2.15;;
82797;SDS011;72540;62.834;27.606;2023-09-19T04:25:21;6.35;;;1.80;;
82797;SDS011;72540;62.834;27.606;2023-09-19T04:27:46;5.72;;;1.90;;
82797;SDS011;72540;62.834;27.606;2023-09-19T04:30:12;5.72;;;1.95;;
82797;SDS011;72540;62.834;27.606;2023-09-19T04:32:40;4.25;;;1.60;;
82797;SDS011;72540;62.834;27.606;2023-09-19T04:35:10;4.18;;;1.40;;
82797;SDS011;72540;62.834;27.606;2023-09-19T04:37:37;7.88;;;1.77;;
82797;SDS011;72540;62.834;27.606;2023-09-19T04:40:09;5.00;;;1.77;;
82797;SDS011;72540;62.834;27.606;2023-09-19T04:42:38;4.68;;;1.45;;
82797;SDS011;72540;62.834;27.606;2023-09-19T04:45:05;7.63;;;1.80;;
82797;SDS011;72540;62.834;27.606;2023-09-19T04:47:32;5.85;;;1.67;;
82797;SDS011;72540;62.834;27.606;2023-09-19T04:49:58;4.43;;;1.60;;
82797;SDS011;72540;62.834;27.606;2023-09-19T04:52:24;3.88;;;1.50;;
82797;SDS011;72540;62.834;27.606;2023-09-19T04:54:50;6.32;;;2.15;;
82797;SDS011;72540;62.834;27.606;2023-09-19T04:57:16;5.80;;;1.92;;
82797;SDS011;72540;62.834;27.606;2023-09-19T04:59:41;4.13;;;1.42;;
82797;SDS011;72540;62.834;27.606;2023-09-19T05:02:07;6.45;;;1.88;;
82797;SDS011;72540;62.834;27.606;2023-09-19T05:04:37;7.78;;;1.85;;
82797;SDS011;72540;62.834;27.606;2023-09-19T05:07:03;5.05;;;1.75;;
82797;SDS011;72540;62.834;27.606;2023-09-19T05:09:29;4.55;;;1.85;;
82797;SDS011;72540;62.834;27.606;2023-09-19T05:11:55;4.90;;;1.70;;
82797;SDS011;72540;62.834;27.606;2023-09-19T05:14:22;4.82;;;1.70;;
82797;SDS011;72540;62.834;27.606;2023-09-19T05:16:48;4.57;;;1.67;;
82797;SDS011;72540;62.834;27.606;2023-09-19T05:19:14;5.10;;;1.50;;
82797;SDS011;72540;62.834;27.606;2023-09-19T05:21:39;4.47;;;1.75;;
82797;SDS011;72540;62.834;27.606;2023-09-19T05:24:05;4.60;;;1.70;;
82797;SDS011;72540;62.834;27.606;2023-09-19T05:26:34;4.70;;;1.50;;
82797;SDS011;72540;62.834;27.606;2023-09-19T05:28:59;4.82;;;1.77;;
82797;SDS011;72540;62.834;27.606;2023-09-19T05:31:28;4.13;;;1.40;;
82797;SDS011;72540;62.834;27.606;2023-09-19T05:33:54;3.22;;;1.30;;
82797;SDS011;72540;62.834;27.606;2023-09-19T05:36:20;4.07;;;1.50;;
82797;SDS011;72540;62.834;27.606;2023-09-19T05:38:45;5.70;;;1.88;;
82797;SDS011;72540;62.834;27.606;2023-09-19T05:41:15;3.70;;;1.38;;
82797;SDS011;72540;62.834;27.606;2023-09-19T05:43:41;6.75;;;2.40;;
82797;SDS011;72540;62.834;27.606;2023-09-19T05:46:07;4.90;;;2.00;;
82797;SDS011;72540;62.834;27.606;2023-09-19T05:48:33;4.68;;;1.67;;
82797;SDS011;72540;62.834;27.606;2023-09-19T05:50:59;6.47;;;1.73;;
82797;SDS011;72540;62.834;27.606;2023-09-19T05:53:26;3.92;;;1.40;;
82797;SDS011;72540;62.834;27.606;2023-09-19T05:55:52;4.20;;;1.33;;
82797;SDS011;72540;62.834;27.606;2023-09-19T05:58:18;4.00;;;1.50;;
82797;SDS011;72540;62.834;27.606;2023-09-19T06:00:45;3.47;;;1.05;;
82797;SDS011;72540;62.834;27.606;2023-09-19T06:03:12;6.88;;;1.27;;
82797;SDS011;72540;62.834;27.606;2023-09-19T06:05:39;5.55;;;1.55;;
82797;SDS011;72540;62.834;27.606;2023-09-19T06:08:07;4.20;;;1.50;;
82797;SDS011;72540;62.834;27.606;2023-09-19T06:10:35;2.97;;;1.30;;
82797;SDS011;72540;62.834;27.606;2023-09-19T06:13:02;5.03;;;1.35;;
82797;SDS011;72540;62.834;27.606;2023-09-19T06:15:31;3.30;;;1.45;;
82797;SDS011;72540;62.834;27.606;2023-09-19T06:17:58;4.75;;;1.33;;
82797;SDS011;72540;62.834;27.606;2023-09-19T06:20:25;3.60;;;1.30;;
82797;SDS011;72540;62.834;27.606;2023-09-19T06:22:52;4.03;;;1.52;;
82797;SDS011;72540;62.834;27.606;2023-09-19T06:25:18;4.55;;;1.38;;
82797;SDS011;72540;62.834;27.606;2023-09-19T06:27:45;2.67;;;1.00;;
82797;SDS011;72540;62.834;27.606;2023-09-19T06:30:11;6.00;;;1.50;;
82797;SDS011;72540;62.834;27.606;2023-09-19T06:32:38;3.75;;;1.25;;
82797;SDS011;72540;62.834;27.606;2023-09-19T06:35:05;5.18;;;1.15;;
82797;SDS011;72540;62.834;27.606;2023-09-19T06:37:34;4.38;;;1.23;;
82797;SDS011;72540;62.834;27.606;2023-09-19T06:39:59;5.15;;;1.50;;
82797;SDS011;72540;62.834;27.606;2023-09-19T06:42:25;2.90;;;1.10;;
82797;SDS011;72540;62.834;27.606;2023-09-19T06:44:53;4.40;;;1.20;;
82797;SDS011;72540;62.834;27.606;2023-09-19T06:47:19;3.90;;;1.20;;
82797;SDS011;72540;62.834;27.606;2023-09-19T06:49:45;4.43;;;1.50;;
82797;SDS011;72540;62.834;27.606;2023-09-19T06:52:11;3.33;;;1.20;;
82797;SDS011;72540;62.834;27.606;2023-09-19T06:54:37;4.93;;;1.33;;
82797;SDS011;72540;62.834;27.606;2023-09-19T06:57:02;3.40;;;1.10;;
82797;SDS011;72540;62.834;27.606;2023-09-19T06:59:28;1.88;;;0.90;;
82797;SDS011;72540;62.834;27.606;2023-09-19T07:01:54;4.18;;;1.17;;
82797;SDS011;72540;62.834;27.606;2023-09-19T07:04:20;3.63;;;1.30;;
82797;SDS011;72540;62.834;27.606;2023-09-19T07:06:49;3.83;;;1.40;;
82797;SDS011;72540;62.834;27.606;2023-09-19T07:09:18;2.42;;;1.00;;
82797;SDS011;72540;62.834;27.606;2023-09-19T07:11:47;3.08;;;1.30;;
82797;SDS011;72540;62.834;27.606;2023-09-19T07:14:13;4.63;;;1.40;;
82797;SDS011;72540;62.834;27.606;2023-09-19T07:16:39;3.50;;;1.08;;
82797;SDS011;72540;62.834;27.606;2023-09-19T07:19:07;3.70;;;0.98;;
82797;SDS011;72540;62.834;27.606;2023-09-19T07:21:33;5.40;;;1.30;;
82797;SDS011;72540;62.834;27.606;2023-09-19T07:24:00;4.35;;;1.30;;
82797;SDS011;72540;62.834;27.606;2023-09-19T07:26:28;2.42;;;1.05;;
82797;SDS011;72540;62.834;27.606;2023-09-19T07:28:54;4.90;;;1.10;;
82797;SDS011;72540;62.834;27.606;2023-09-19T07:31:20;2.05;;;0.82;;
82797;SDS011;72540;62.834;27.606;2023-09-19T07:33:48;2.90;;;1.00;;
82797;SDS011;72540;62.834;27.606;2023-09-19T07:36:14;2.50;;;1.05;;
82797;SDS011;72540;62.834;27.606;2023-09-19T07:38:40;2.95;;;1.08;;
82797;SDS011;72540;62.834;27.606;2023-09-19T07:41:07;3.45;;;1.33;;
82797;SDS011;72540;62.834;27.606;2023-09-19T07:43:35;4.30;;;1.20;;
82797;SDS011;72540;62.834;27.606;2023-09-19T07:46:07;4.20;;;1.40;;
82797;SDS011;72540;62.834;27.606;2023-09-19T07:48:37;3.38;;;1.10;;
82797;SDS011;72540;62.834;27.606;2023-09-19T07:51:07;3.90;;;1.00;;
82797;SDS011;72540;62.834;27.606;2023-09-19T07:53:34;2.65;;;1.10;;
82797;SDS011;72540;62.834;27.606;2023-09-19T07:56:04;3.83;;;1.20;;
82797;SDS011;72540;62.834;27.606;2023-09-19T07:58:30;3.58;;;1.20;;
82797;SDS011;72540;62.834;27.606;2023-09-19T08:01:01;3.10;;;1.30;;
82797;SDS011;72540;62.834;27.606;2023-09-19T08:03:32;3.97;;;1.08;;
82797;SDS011;72540;62.834;27.606;2023-09-19T08:05:58;3.38;;;1.15;;
82797;SDS011;72540;62.834;27.606;2023-09-19T08:08:24;2.08;;;0.90;;
82797;SDS011;72540;62.834;27.606;2023-09-19T08:10:55;3.25;;;0.95;;
82797;SDS011;72540;62.834;27.606;2023-09-19T08:13:24;2.92;;;0.93;;
82797;SDS011;72540;62.834;27.606;2023-09-19T08:15:51;3.20;;;1.10;;
82797;SDS011;72540;62.834;27.606;2023-09-19T08:18:20;13.82;;;1.63;;
82797;SDS011;72540;62.834;27.606;2023-09-19T08:20:49;2.45;;;0.85;;
82797;SDS011;72540;62.834;27.606;2023-09-19T08:23:16;3.45;;;0.88;;
82797;SDS011;72540;62.834;27.606;2023-09-19T08:25:45;1.60;;;0.90;;
82797;SDS011;72540;62.834;27.606;2023-09-19T08:28:11;3.55;;;0.90;;
82797;SDS011;72540;62.834;27.606;2023-09-19T08:30:39;4.22;;;1.60;;
82797;SDS011;72540;62.834;27.606;2023-09-19T08:33:06;3.58;;;1.10;;
82797;SDS011;72540;62.834;27.606;2023-09-19T08:35:32;3.00;;;1.02;;
82797;SDS011;72540;62.834;27.606;2023-09-19T08:37:59;3.45;;;1.30;;
82797;SDS011;72540;62.834;27.606;2023-09-19T08:40:29;4.50;;;1.17;;
82797;SDS011;72540;62.834;27.606;2023-09-19T08:42:59;3.22;;;1.00;;
82797;SDS011;72540;62.834;27.606;2023-09-19T08:45:26;1.73;;;0.77;;
82797;SDS011;72540;62.834;27.606;2023-09-19T08:47:56;3.13;;;1.00;;
82797;SDS011;72540;62.834;27.606;2023-09-19T08:50:26;1.75;;;0.73;;
82797;SDS011;72540;62.834;27.606;2023-09-19T08:52:54;3.30;;;1.00;;
82797;SDS011;72540;62.834;27.606;2023-09-19T08:55:23;6.00;;;1.02;;
82797;SDS011;72540;62.834;27.606;2023-09-19T08:57:52;3.20;;;0.98;;
82797;SDS011;72540;62.834;27.606;2023-09-19T09:00:30;3.83;;;0.90;;
82797;SDS011;72540;62.834;27.606;2023-09-19T09:02:56;3.08;;;1.00;;
82797;SDS011;72540;62.834;27.606;2023-09-19T09:05:23;3.33;;;1.48;;
82797;SDS011;72540;62.834;27.606;2023-09-19T09:07:49;3.67;;;0.90;;
82797;SDS011;72540;62.834;27.606;2023-09-19T09:12:49;2.78;;;0.80;;
82797;SDS011;72540;62.834;27.606;2023-09-19T09:15:21;2.40;;;0.93;;
82797;SDS011;72540;62.834;27.606;2023-09-19T09:17:51;2.28;;;0.90;;
82797;SDS011;72540;62.834;27.606;2023-09-19T09:20:21;3.40;;;0.90;;
82797;SDS011;72540;62.834;27.606;2023-09-19T09:22:50;3.05;;;0.82;;
82797;SDS011;72540;62.834;27.606;2023-09-19T09:25:21;2.25;;;0.90;;
82797;SDS011;72540;62.834;27.606;2023-09-19T09:27:59;2.13;;;0.82;;
82797;SDS011;72540;62.834;27.606;2023-09-19T09:30:35;2.55;;;1.00;;
82797;SDS011;72540;62.834;27.606;2023-09-19T09:33:09;4.93;;;0.90;;
82797;SDS011;72540;62.834;27.606;2023-09-19T09:38:18;2.42;;;0.80;;
82797;SDS011;72540;62.834;27.606;2023-09-19T09:40:49;1.17;;;0.60;;
82797;SDS011;72540;62.834;27.606;2023-09-19T09:43:28;2.22;;;0.88;;
82797;SDS011;72540;62.834;27.606;2023-09-19T09:46:08;2.78;;;0.70;;
82797;SDS011;72540;62.834;27.606;2023-09-19T09:51:38;3.55;;;0.88;;
82797;SDS011;72540;62.834;27.606;2023-09-19T09:54:25;2.00;;;0.85;;
82797;SDS011;72540;62.834;27.606;2023-09-19T09:56:59;2.35;;;0.73;;
82797;SDS011;72540;62.834;27.606;2023-09-19T10:02:16;3.70;;;0.80;;
82797;SDS011;72540;62.834;27.606;2023-09-19T10:04:53;2.55;;;1.20;;
82797;SDS011;72540;62.834;27.606;2023-09-19T10:07:51;1.40;;;0.68;;
82797;SDS011;72540;62.834;27.606;2023-09-19T10:10:38;3.42;;;0.90;;
82797;SDS011;72540;62.834;27.606;2023-09-19T10:13:07;2.83;;;1.30;;
82797;SDS011;72540;62.834;27.606;2023-09-19T10:15:37;2.65;;;0.68;;
82797;SDS011;72540;62.834;27.606;2023-09-19T10:18:06;5.28;;;1.00;;
82797;SDS011;72540;62.834;27.606;2023-09-19T10:20:36;2.28;;;0.90;;
82797;SDS011;72540;62.834;27.606;2023-09-19T10:23:09;7.10;;;1.38;;
82797;SDS011;72540;62.834;27.606;2023-09-19T10:25:38;4.13;;;1.00;;
82797;SDS011;72540;62.834;27.606;2023-09-19T10:28:08;2.47;;;0.90;;
82797;SDS011;72540;62.834;27.606;2023-09-19T10:33:19;2.25;;;0.90;;
82797;SDS011;72540;62.834;27.606;2023-09-19T10:35:48;2.78;;;0.90;;
82797;SDS011;72540;62.834;27.606;2023-09-19T10:38:20;3.05;;;0.90;;
82797;SDS011;72540;62.834;27.606;2023-09-19T10:40:50;3.40;;;1.08;;
82797;SDS011;72540;62.834;27.606;2023-09-19T10:43:19;2.28;;;1.00;;
82797;SDS011;72540;62.834;27.606;2023-09-19T10:45:47;3.05;;;0.90;;
82797;SDS011;72540;62.834;27.606;2023-09-19T10:48:20;2.28;;;0.82;;
82797;SDS011;72540;62.834;27.606;2023-09-19T10:53:24;2.05;;;0.90;;
82797;SDS011;72540;62.834;27.606;2023-09-19T10:55:54;2.78;;;0.88;;
82797;SDS011;72540;62.834;27.606;2023-09-19T10:58:27;4.25;;;0.98;;
82797;SDS011;72540;62.834;27.606;2023-09-19T11:00:57;2.33;;;0.90;;
82797;SDS011;72540;62.834;27.606;2023-09-19T11:06:13;2.22;;;0.70;;
82797;SDS011;72540;62.834;27.606;2023-09-19T11:08:55;2.85;;;0.90;;
82797;SDS011;72540;62.834;27.606;2023-09-19T11:30:41;3.95;;;1.27;;
82797;SDS011;72540;62.834;27.606;2023-09-19T11:33:22;3.78;;;1.15;;
82797;SDS011;72540;62.834;27.606;2023-09-19T11:36:06;3.17;;;1.00;;
82797;SDS011;72540;62.834;27.606;2023-09-19T11:49:16;4.65;;;1.48;;
82797;SDS011;72540;62.834;27.606;2023-09-19T11:51:46;4.90;;;1.30;;
82797;SDS011;72540;62.834;27.606;2023-09-19T11:54:13;3.72;;;1.20;;
82797;SDS011;72540;62.834;27.606;2023-09-19T11:56:43;5.45;;;1.30;;
82797;SDS011;72540;62.834;27.606;2023-09-19T11:59:11;3.83;;;1.35;;
82797;SDS011;72540;62.834;27.606;2023-09-19T12:01:42;4.32;;;1.20;;
82797;SDS011;72540;62.834;27.606;2023-09-19T12:04:08;5.13;;;1.75;;
82797;SDS011;72540;62.834;27.606;2023-09-19T12:06:37;4.78;;;1.40;;
82797;SDS011;72540;62.834;27.606;2023-09-19T12:09:12;8.77;;;3.47;;
82797;SDS011;72540;62.834;27.606;2023-09-19T12:11:42;5.80;;;1.50;;
82797;SDS011;72540;62.834;27.606;2023-09-19T12:14:11;4.95;;;1.55;;
82797;SDS011;72540;62.834;27.606;2023-09-19T12:16:51;5.63;;;2.15;;
82797;SDS011;72540;62.834;27.606;2023-09-19T12:19:21;6.95;;;2.10;;
82797;SDS011;72540;62.834;27.606;2023-09-19T12:21:57;6.05;;;2.33;;
82797;SDS011;72540;62.834;27.606;2023-09-19T12:24:27;6.50;;;1.92;;
82797;SDS011;72540;62.834;27.606;2023-09-19T12:29:29;6.85;;;2.42;;
82797;SDS011;72540;62.834;27.606;2023-09-19T12:31:57;6.25;;;2.13;;
82797;SDS011;72540;62.834;27.606;2023-09-19T12:34:25;7.63;;;2.55;;
82797;SDS011;72540;62.834;27.606;2023-09-19T12:37:05;7.40;;;2.25;;
82797;SDS011;72540;62.834;27.606;2023-09-19T12:39:37;7.88;;;2.35;;
82797;SDS011;72540;62.834;27.606;2023-09-19T12:42:08;5.82;;;2.13;;
82797;SDS011;72540;62.834;27.606;2023-09-19T12:44:42;6.45;;;2.60;;
82797;SDS011;72540;62.834;27.606;2023-09-19T12:47:10;7.50;;;2.25;;
82797;SDS011;72540;62.834;27.606;2023-09-19T12:52:36;6.50;;;1.92;;
82797;SDS011;72540;62.834;27.606;2023-09-19T12:55:03;5.05;;;2.10;;
82797;SDS011;72540;62.834;27.606;2023-09-19T12:57:32;5.63;;;2.22;;
82797;SDS011;72540;62.834;27.606;2023-09-19T13:00:00;6.43;;;2.30;;
82797;SDS011;72540;62.834;27.606;2023-09-19T13:02:27;6.28;;;2.45;;
82797;SDS011;72540;62.834;27.606;2023-09-19T13:04:53;5.43;;;2.30;;
82797;SDS011;72540;62.834;27.606;2023-09-19T13:07:40;6.65;;;2.20;;
82797;SDS011;72540;62.834;27.606;2023-09-19T13:10:09;6.55;;;2.45;;
82797;SDS011;72540;62.834;27.606;2023-09-19T13:12:37;6.68;;;2.03;;
82797;SDS011;72540;62.834;27.606;2023-09-19T13:15:08;6.72;;;2.05;;
82797;SDS011;72540;62.834;27.606;2023-09-19T13:17:43;6.57;;;1.95;;
82797;SDS011;72540;62.834;27.606;2023-09-19T13:20:20;5.47;;;1.83;;
82797;SDS011;72540;62.834;27.606;2023-09-19T13:22:52;6.75;;;2.20;;
82797;SDS011;72540;62.834;27.606;2023-09-19T13:25:20;5.03;;;1.65;;
82797;SDS011;72540;62.834;27.606;2023-09-19T13:30:16;7.55;;;2.25;;
82797;SDS011;72540;62.834;27.606;2023-09-19T13:32:42;6.38;;;2.17;;
82797;SDS011;72540;62.834;27.606;2023-09-19T13:35:08;7.15;;;1.98;;
82797;SDS011;72540;62.834;27.606;2023-09-19T13:37:35;6.72;;;1.95;;
82797;SDS011;72540;62.834;27.606;2023-09-19T13:40:07;6.47;;;1.90;;
82797;SDS011;72540;62.834;27.606;2023-09-19T13:42:34;5.75;;;1.88;;
82797;SDS011;72540;62.834;27.606;2023-09-19T13:45:02;6.20;;;2.10;;
82797;SDS011;72540;62.834;27.606;2023-09-19T13:47:32;7.18;;;2.05;;
82797;SDS011;72540;62.834;27.606;2023-09-19T13:49:59;5.65;;;2.10;;
82797;SDS011;72540;62.834;27.606;2023-09-19T13:52:26;6.43;;;2.38;;
82797;SDS011;72540;62.834;27.606;2023-09-19T13:54:53;5.72;;;2.35;;
82797;SDS011;72540;62.834;27.606;2023-09-19T13:57:22;6.82;;;1.88;;
82797;SDS011;72540;62.834;27.606;2023-09-19T13:59:49;7.18;;;2.10;;
82797;SDS011;72540;62.834;27.606;2023-09-19T14:02:15;5.43;;;2.17;;
82797;SDS011;72540;62.834;27.606;2023-09-19T14:04:43;5.97;;;2.10;;
82797;SDS011;72540;62.834;27.606;2023-09-19T14:07:09;5.88;;;2.25;;
82797;SDS011;72540;62.834;27.606;2023-09-19T14:09:36;6.13;;;2.40;;
82797;SDS011;72540;62.834;27.606;2023-09-19T14:12:02;9.25;;;2.55;;
82797;SDS011;72540;62.834;27.606;2023-09-19T14:14:28;8.70;;;2.63;;
82797;SDS011;72540;62.834;27.606;2023-09-19T14:16:54;7.82;;;3.05;;
82797;SDS011;72540;62.834;27.606;2023-09-19T14:19:20;7.18;;;3.13;;
82797;SDS011;72540;62.834;27.606;2023-09-19T14:21:46;8.27;;;2.53;;
82797;SDS011;72540;62.834;27.606;2023-09-19T14:24:16;6.70;;;2.55;;
82797;SDS011;72540;62.834;27.606;2023-09-19T14:26:43;6.65;;;2.60;;
82797;SDS011;72540;62.834;27.606;2023-09-19T14:29:10;7.50;;;2.90;;
82797;SDS011;72540;62.834;27.606;2023-09-19T14:31:37;6.03;;;2.58;;
82797;SDS011;72540;62.834;27.606;2023-09-19T14:34:06;7.20;;;2.55;;
82797;SDS011;72540;62.834;27.606;2023-09-19T14:36:35;7.53;;;2.45;;
82797;SDS011;72540;62.834;27.606;2023-09-19T14:39:01;5.93;;;2.40;;
82797;SDS011;72540;62.834;27.606;2023-09-19T14:41:27;11.18;;;2.90;;
82797;SDS011;72540;62.834;27.606;2023-09-19T14:43:54;7.30;;;3.35;;
82797;SDS011;72540;62.834;27.606;2023-09-19T14:46:22;6.82;;;2.88;;
82797;SDS011;72540;62.834;27.606;2023-09-19T14:48:51;7.80;;;2.90;;
82797;SDS011;72540;62.834;27.606;2023-09-19T14:51:17;9.52;;;3.40;;
82797;SDS011;72540;62.834;27.606;2023-09-19T14:53:44;7.05;;;2.80;;
82797;SDS011;72540;62.834;27.606;2023-09-19T14:56:11;9.32;;;3.50;;
82797;SDS011;72540;62.834;27.606;2023-09-19T14:58:38;7.57;;;3.35;;
82797;SDS011;72540;62.834;27.606;2023-09-19T15:01:07;7.25;;;3.47;;
82797;SDS011;72540;62.834;27.606;2023-09-19T15:03:38;7.30;;;3.03;;
82797;SDS011;72540;62.834;27.606;2023-09-19T15:06:11;7.95;;;2.95;;
82797;SDS011;72540;62.834;27.606;2023-09-19T15:08:43;9.85;;;3.47;;
82797;SDS011;72540;62.834;27.606;2023-09-19T15:11:16;11.23;;;3.47;;
82797;SDS011;72540;62.834;27.606;2023-09-19T15:13:42;8.35;;;3.65;;
82797;SDS011;72540;62.834;27.606;2023-09-19T15:16:09;7.22;;;3.08;;
82797;SDS011;72540;62.834;27.606;2023-09-19T15:18:38;7.00;;;3.00;;
82797;SDS011;72540;62.834;27.606;2023-09-19T15:21:07;8.95;;;3.95;;
82797;SDS011;72540;62.834;27.606;2023-09-19T15:23:34;7.43;;;3.30;;
82797;SDS011;72540;62.834;27.606;2023-09-19T15:26:02;12.02;;;3.30;;
82797;SDS011;72540;62.834;27.606;2023-09-19T15:28:31;9.07;;;3.63;;
82797;SDS011;72540;62.834;27.606;2023-09-19T15:31:02;7.93;;;3.33;;
82797;SDS011;72540;62.834;27.606;2023-09-19T15:33:32;9.02;;;3.65;;
82797;SDS011;72540;62.834;27.606;2023-09-19T15:44:00;9.07;;;3.50;;
82797;SDS011;72540;62.834;27.606;2023-09-19T15:46:29;9.05;;;3.53;;
82797;SDS011;72540;62.834;27.606;2023-09-19T15:48:55;8.57;;;3.92;;
82797;SDS011;72540;62.834;27.606;2023-09-19T15:51:22;15.73;;;4.45;;
82797;SDS011;72540;62.834;27.606;2023-09-19T15:53:48;12.18;;;3.95;;
82797;SDS011;72540;62.834;27.606;2023-09-19T15:56:18;9.73;;;4.05;;
82797;SDS011;72540;62.834;27.606;2023-09-19T15:58:48;8.82;;;3.50;;
82797;SDS011;72540;62.834;27.606;2023-09-19T16:01:16;8.60;;;4.10;;
82797;SDS011;72540;62.834;27.606;2023-09-19T16:03:42;10.45;;;4.50;;